sensor_id;sensor_type;location;lat;lon;timestamp;temperature;humidity
46309;DHT22;32037;50.820;6.494;2023-05-07T00:00:06;18.20;83.80
46309;DHT22;32037;50.820;6.494;2023-05-07T00:02:35;18.20;83.90
46309;DHT22;32037;50.820;6.494;2023-05-07T00:05:06;18.20;83.90
46309;DHT22;32037;50.820;6.494;2023-05-07T00:07:35;18.20;83.90
46309;DHT22;32037;50.820;6.494;2023-05-07T00:10:05;18.20;83.90
46309;DHT22;32037;50.820;6.494;2023-05-07T00:12:34;18.20;84.00
46309;DHT22;32037;50.820;6.494;2023-05-07T00:15:08;18.20;84.00
46309;DHT22;32037;50.820;6.494;2023-05-07T00:17:37;18.20;83.80
46309;DHT22;32037;50.820;6.494;2023-05-07T00:20:07;18.20;84.00
46309;DHT22;32037;50.820;6.494;2023-05-07T00:22:36;18.20;84.00
46309;DHT22;32037;50.820;6.494;2023-05-07T00:25:05;18.20;84.00
46309;DHT22;32037;50.820;6.494;2023-05-07T00:27:34;18.20;84.00
46309;DHT22;32037;50.820;6.494;2023-05-07T00:30:03;18.20;83.90
46309;DHT22;32037;50.820;6.494;2023-05-07T00:32:33;18.10;83.80
46309;DHT22;32037;50.820;6.494;2023-05-07T00:35:01;18.20;83.90
46309;DHT22;32037;50.820;6.494;2023-05-07T00:37:30;18.10;83.80
46309;DHT22;32037;50.820;6.494;2023-05-07T00:39:59;18.20;83.80
46309;DHT22;32037;50.820;6.494;2023-05-07T00:42:27;18.10;83.80
46309;DHT22;32037;50.820;6.494;2023-05-07T00:44:56;18.10;83.70
46309;DHT22;32037;50.820;6.494;2023-05-07T00:47:25;18.10;83.80
46309;DHT22;32037;50.820;6.494;2023-05-07T00:49:55;18.10;84.00
46309;DHT22;32037;50.820;6.494;2023-05-07T00:52:26;18.10;83.80
46309;DHT22;32037;50.820;6.494;2023-05-07T00:54:55;18.10;83.90
46309;DHT22;32037;50.820;6.494;2023-05-07T00:57:24;18.10;83.80
46309;DHT22;32037;50.820;6.494;2023-05-07T00:59:53;18.10;83.90
46309;DHT22;32037;50.820;6.494;2023-05-07T01:02:25;18.10;83.90
46309;DHT22;32037;50.820;6.494;2023-05-07T01:04:55;18.10;83.90
46309;DHT22;32037;50.820;6.494;2023-05-07T01:07:24;18.10;83.90
46309;DHT22;32037;50.820;6.494;2023-05-07T01:09:53;18.10;84.00
46309;DHT22;32037;50.820;6.494;2023-05-07T01:12:22;18.10;83.90
46309;DHT22;32037;50.820;6.494;2023-05-07T01:14:51;18.10;83.90
46309;DHT22;32037;50.820;6.494;2023-05-07T01:17:20;18.10;84.00
46309;DHT22;32037;50.820;6.494;2023-05-07T01:19:49;18.10;84.00
46309;DHT22;32037;50.820;6.494;2023-05-07T01:22:29;18.10;83.90
46309;DHT22;32037;50.820;6.494;2023-05-07T01:24:59;18.10;84.00
46309;DHT22;32037;50.820;6.494;2023-05-07T01:27:30;18.10;84.00
46309;DHT22;32037;50.820;6.494;2023-05-07T01:30:01;18.10;84.00
46309;DHT22;32037;50.820;6.494;2023-05-07T01:32:33;18.10;84.00
46309;DHT22;32037;50.820;6.494;2023-05-07T01:35:05;18.10;84.00
46309;DHT22;32037;50.820;6.494;2023-05-07T01:37:37;18.10;84.00
46309;DHT22;32037;50.820;6.494;2023-05-07T01:40:08;18.10;84.00
46309;DHT22;32037;50.820;6.494;2023-05-07T01:42:37;18.00;83.90
46309;DHT22;32037;50.820;6.494;2023-05-07T01:45:07;18.00;83.90
46309;DHT22;32037;50.820;6.494;2023-05-07T01:47:36;18.00;83.80
46309;DHT22;32037;50.820;6.494;2023-05-07T01:50:06;18.00;83.90
46309;DHT22;32037;50.820;6.494;2023-05-07T01:52:39;18.00;83.90
46309;DHT22;32037;50.820;6.494;2023-05-07T01:55:08;18.00;83.90
46309;DHT22;32037;50.820;6.494;2023-05-07T01:57:36;18.00;83.90
46309;DHT22;32037;50.820;6.494;2023-05-07T02:00:06;18.00;83.90
46309;DHT22;32037;50.820;6.494;2023-05-07T02:02:44;18.00;83.90
46309;DHT22;32037;50.820;6.494;2023-05-07T02:05:33;18.00;83.90
46309;DHT22;32037;50.820;6.494;2023-05-07T02:08:09;18.00;83.80
46309;DHT22;32037;50.820;6.494;2023-05-07T02:10:37;18.00;83.80
46309;DHT22;32037;50.820;6.494;2023-05-07T02:13:06;18.00;83.70
46309;DHT22;32037;50.820;6.494;2023-05-07T02:15:35;18.00;83.70
46309;DHT22;32037;50.820;6.494;2023-05-07T02:18:05;18.00;83.70
46309;DHT22;32037;50.820;6.494;2023-05-07T02:20:34;18.00;83.70
46309;DHT22;32037;50.820;6.494;2023-05-07T02:23:03;18.00;83.60
46309;DHT22;32037;50.820;6.494;2023-05-07T02:25:33;18.00;83.50
46309;DHT22;32037;50.820;6.494;2023-05-07T02:28:01;18.00;83.50
46309;DHT22;32037;50.820;6.494;2023-05-07T02:30:50;18.00;83.60
46309;DHT22;32037;50.820;6.494;2023-05-07T02:33:19;18.00;83.50
46309;DHT22;32037;50.820;6.494;2023-05-07T02:35:48;17.90;83.30
46309;DHT22;32037;50.820;6.494;2023-05-07T02:38:18;17.90;83.40
46309;DHT22;32037;50.820;6.494;2023-05-07T02:40:48;18.00;83.50
46309;DHT22;32037;50.820;6.494;2023-05-07T02:43:17;17.90;83.40
46309;DHT22;32037;50.820;6.494;2023-05-07T02:45:47;17.90;83.40
46309;DHT22;32037;50.820;6.494;2023-05-07T02:48:16;17.90;83.40
46309;DHT22;32037;50.820;6.494;2023-05-07T02:50:45;17.90;83.40
46309;DHT22;32037;50.820;6.494;2023-05-07T02:53:14;17.90;83.40
46309;DHT22;32037;50.820;6.494;2023-05-07T02:55:43;17.90;83.40
46309;DHT22;32037;50.820;6.494;2023-05-07T02:58:13;17.90;83.50
46309;DHT22;32037;50.820;6.494;2023-05-07T03:00:42;17.90;83.50
46309;DHT22;32037;50.820;6.494;2023-05-07T03:03:21;17.90;83.60
46309;DHT22;32037;50.820;6.494;2023-05-07T03:05:49;17.90;83.60
46309;DHT22;32037;50.820;6.494;2023-05-07T03:08:18;17.90;83.70
46309;DHT22;32037;50.820;6.494;2023-05-07T03:10:46;17.90;83.70
46309;DHT22;32037;50.820;6.494;2023-05-07T03:13:16;17.80;83.70
46309;DHT22;32037;50.820;6.494;2023-05-07T03:15:45;17.90;83.80
46309;DHT22;32037;50.820;6.494;2023-05-07T03:18:13;17.90;83.90
46309;DHT22;32037;50.820;6.494;2023-05-07T03:20:42;17.80;83.90
46309;DHT22;32037;50.820;6.494;2023-05-07T03:23:11;17.90;83.90
46309;DHT22;32037;50.820;6.494;2023-05-07T03:25:39;17.80;83.80
46309;DHT22;32037;50.820;6.494;2023-05-07T03:28:08;17.80;83.90
46309;DHT22;32037;50.820;6.494;2023-05-07T03:30:44;17.90;83.90
46309;DHT22;32037;50.820;6.494;2023-05-07T03:33:12;17.90;83.90
46309;DHT22;32037;50.820;6.494;2023-05-07T03:35:41;17.90;84.10
46309;DHT22;32037;50.820;6.494;2023-05-07T03:38:11;17.90;83.90
46309;DHT22;32037;50.820;6.494;2023-05-07T03:40:39;17.80;83.80
46309;DHT22;32037;50.820;6.494;2023-05-07T03:43:11;17.90;84.00
46309;DHT22;32037;50.820;6.494;2023-05-07T03:45:45;17.80;83.80
46309;DHT22;32037;50.820;6.494;2023-05-07T03:48:24;17.80;83.80
46309;DHT22;32037;50.820;6.494;2023-05-07T03:50:56;17.80;83.90
46309;DHT22;32037;50.820;6.494;2023-05-07T03:53:29;17.80;83.80
46309;DHT22;32037;50.820;6.494;2023-05-07T03:55:57;17.80;83.90
46309;DHT22;32037;50.820;6.494;2023-05-07T03:58:27;17.80;83.90
46309;DHT22;32037;50.820;6.494;2023-05-07T04:01:00;17.80;83.90
46309;DHT22;32037;50.820;6.494;2023-05-07T04:03:28;17.80;83.90
46309;DHT22;32037;50.820;6.494;2023-05-07T04:05:59;17.80;83.90
46309;DHT22;32037;50.820;6.494;2023-05-07T04:08:27;17.80;84.00
46309;DHT22;32037;50.820;6.494;2023-05-07T04:10:56;17.80;84.10
46309;DHT22;32037;50.820;6.494;2023-05-07T04:13:29;17.80;84.00
46309;DHT22;32037;50.820;6.494;2023-05-07T04:16:02;17.80;83.90
46309;DHT22;32037;50.820;6.494;2023-05-07T04:18:31;17.80;83.90
46309;DHT22;32037;50.820;6.494;2023-05-07T04:21:00;17.80;84.00
46309;DHT22;32037;50.820;6.494;2023-05-07T04:23:28;17.80;84.00
46309;DHT22;32037;50.820;6.494;2023-05-07T04:25:59;17.80;83.90
46309;DHT22;32037;50.820;6.494;2023-05-07T04:28:38;17.80;84.00
46309;DHT22;32037;50.820;6.494;2023-05-07T04:31:08;17.80;84.10
46309;DHT22;32037;50.820;6.494;2023-05-07T04:33:37;17.80;84.00
46309;DHT22;32037;50.820;6.494;2023-05-07T04:36:09;17.80;84.10
46309;DHT22;32037;50.820;6.494;2023-05-07T04:38:45;17.80;84.00
46309;DHT22;32037;50.820;6.494;2023-05-07T04:41:14;17.80;84.10
46309;DHT22;32037;50.820;6.494;2023-05-07T04:43:43;17.80;84.00
46309;DHT22;32037;50.820;6.494;2023-05-07T04:46:16;17.80;84.10
46309;DHT22;32037;50.820;6.494;2023-05-07T04:48:45;17.80;84.10
46309;DHT22;32037;50.820;6.494;2023-05-07T04:51:13;17.80;84.00
46309;DHT22;32037;50.820;6.494;2023-05-07T04:53:41;17.70;84.00
46309;DHT22;32037;50.820;6.494;2023-05-07T04:56:10;17.70;84.00
46309;DHT22;32037;50.820;6.494;2023-05-07T04:58:42;17.80;84.00
46309;DHT22;32037;50.820;6.494;2023-05-07T05:01:11;17.80;84.20
46309;DHT22;32037;50.820;6.494;2023-05-07T05:03:41;17.80;84.10
46309;DHT22;32037;50.820;6.494;2023-05-07T05:06:11;17.70;84.20
46309;DHT22;32037;50.820;6.494;2023-05-07T05:08:39;17.70;84.20
46309;DHT22;32037;50.820;6.494;2023-05-07T05:11:09;17.70;84.10
46309;DHT22;32037;50.820;6.494;2023-05-07T05:13:37;17.70;84.20
46309;DHT22;32037;50.820;6.494;2023-05-07T05:16:17;17.70;84.20
46309;DHT22;32037;50.820;6.494;2023-05-07T05:18:47;17.70;84.20
46309;DHT22;32037;50.820;6.494;2023-05-07T05:21:18;17.70;84.20
46309;DHT22;32037;50.820;6.494;2023-05-07T05:23:49;17.70;84.20
46309;DHT22;32037;50.820;6.494;2023-05-07T05:26:21;17.70;84.20
46309;DHT22;32037;50.820;6.494;2023-05-07T05:28:49;17.70;84.20
46309;DHT22;32037;50.820;6.494;2023-05-07T05:31:21;17.70;84.30
46309;DHT22;32037;50.820;6.494;2023-05-07T05:33:52;17.70;84.50
46309;DHT22;32037;50.820;6.494;2023-05-07T05:36:20;17.70;84.30
46309;DHT22;32037;50.820;6.494;2023-05-07T05:38:51;17.70;84.40
46309;DHT22;32037;50.820;6.494;2023-05-07T05:41:21;17.70;84.50
46309;DHT22;32037;50.820;6.494;2023-05-07T05:43:50;17.70;84.60
46309;DHT22;32037;50.820;6.494;2023-05-07T05:46:19;17.70;84.50
46309;DHT22;32037;50.820;6.494;2023-05-07T05:48:51;17.70;84.50
46309;DHT22;32037;50.820;6.494;2023-05-07T05:51:20;17.70;84.50
46309;DHT22;32037;50.820;6.494;2023-05-07T05:53:49;17.70;84.60
46309;DHT22;32037;50.820;6.494;2023-05-07T05:56:19;17.70;84.70
46309;DHT22;32037;50.820;6.494;2023-05-07T05:58:48;17.70;84.70
46309;DHT22;32037;50.820;6.494;2023-05-07T06:01:17;17.70;84.60
46309;DHT22;32037;50.820;6.494;2023-05-07T06:03:49;17.70;84.70
46309;DHT22;32037;50.820;6.494;2023-05-07T06:06:19;17.70;84.70
46309;DHT22;32037;50.820;6.494;2023-05-07T06:08:47;17.70;85.00
46309;DHT22;32037;50.820;6.494;2023-05-07T06:11:21;17.70;84.80
46309;DHT22;32037;50.820;6.494;2023-05-07T06:13:49;17.70;85.10
46309;DHT22;32037;50.820;6.494;2023-05-07T06:16:18;17.70;85.30
46309;DHT22;32037;50.820;6.494;2023-05-07T06:18:47;17.70;85.20
46309;DHT22;32037;50.820;6.494;2023-05-07T06:21:16;17.70;85.20
46309;DHT22;32037;50.820;6.494;2023-05-07T06:23:46;17.70;85.30
46309;DHT22;32037;50.820;6.494;2023-05-07T06:26:14;17.70;85.20
46309;DHT22;32037;50.820;6.494;2023-05-07T06:28:46;17.70;85.30
46309;DHT22;32037;50.820;6.494;2023-05-07T06:31:18;17.70;85.20
46309;DHT22;32037;50.820;6.494;2023-05-07T06:34:01;17.70;85.30
46309;DHT22;32037;50.820;6.494;2023-05-07T06:36:36;17.70;85.40
46309;DHT22;32037;50.820;6.494;2023-05-07T06:39:15;17.70;85.30
46309;DHT22;32037;50.820;6.494;2023-05-07T06:41:44;17.70;85.50
46309;DHT22;32037;50.820;6.494;2023-05-07T06:44:22;17.70;85.50
46309;DHT22;32037;50.820;6.494;2023-05-07T06:47:20;17.70;85.30
46309;DHT22;32037;50.820;6.494;2023-05-07T06:49:52;17.70;85.10
46309;DHT22;32037;50.820;6.494;2023-05-07T06:52:23;17.70;85.20
46309;DHT22;32037;50.820;6.494;2023-05-07T06:54:54;17.70;85.40
46309;DHT22;32037;50.820;6.494;2023-05-07T06:57:25;17.70;85.40
46309;DHT22;32037;50.820;6.494;2023-05-07T06:59:53;17.70;85.40
46309;DHT22;32037;50.820;6.494;2023-05-07T07:02:21;17.70;85.60
46309;DHT22;32037;50.820;6.494;2023-05-07T07:04:50;17.70;85.20
46309;DHT22;32037;50.820;6.494;2023-05-07T07:07:19;17.70;85.40
46309;DHT22;32037;50.820;6.494;2023-05-07T07:09:50;17.70;85.20
46309;DHT22;32037;50.820;6.494;2023-05-07T07:12:20;17.70;85.00
46309;DHT22;32037;50.820;6.494;2023-05-07T07:14:49;17.70;84.90
46309;DHT22;32037;50.820;6.494;2023-05-07T07:17:18;17.70;84.90
46309;DHT22;32037;50.820;6.494;2023-05-07T07:19:47;17.70;84.60
46309;DHT22;32037;50.820;6.494;2023-05-07T07:22:16;17.70;84.60
46309;DHT22;32037;50.820;6.494;2023-05-07T07:24:44;17.70;84.60
46309;DHT22;32037;50.820;6.494;2023-05-07T07:27:15;17.70;84.70
46309;DHT22;32037;50.820;6.494;2023-05-07T07:29:45;17.70;84.70
46309;DHT22;32037;50.820;6.494;2023-05-07T07:32:14;17.70;84.70
46309;DHT22;32037;50.820;6.494;2023-05-07T07:34:43;17.70;84.70
46309;DHT22;32037;50.820;6.494;2023-05-07T07:37:12;17.70;84.70
46309;DHT22;32037;50.820;6.494;2023-05-07T07:39:41;17.70;84.60
46309;DHT22;32037;50.820;6.494;2023-05-07T07:42:10;17.70;84.60
46309;DHT22;32037;50.820;6.494;2023-05-07T07:44:39;17.70;84.90
46309;DHT22;32037;50.820;6.494;2023-05-07T07:47:11;17.70;85.10
46309;DHT22;32037;50.820;6.494;2023-05-07T07:49:41;17.70;85.00
46309;DHT22;32037;50.820;6.494;2023-05-07T07:52:10;17.70;84.90
46309;DHT22;32037;50.820;6.494;2023-05-07T07:54:39;17.70;84.70
46309;DHT22;32037;50.820;6.494;2023-05-07T07:57:08;17.70;85.00
46309;DHT22;32037;50.820;6.494;2023-05-07T07:59:37;17.70;84.80
46309;DHT22;32037;50.820;6.494;2023-05-07T08:02:06;17.70;84.80
46309;DHT22;32037;50.820;6.494;2023-05-07T08:04:36;17.70;84.80
46309;DHT22;32037;50.820;6.494;2023-05-07T08:07:07;17.70;84.70
46309;DHT22;32037;50.820;6.494;2023-05-07T08:09:40;17.70;84.80
46309;DHT22;32037;50.820;6.494;2023-05-07T08:12:09;17.70;84.80
46309;DHT22;32037;50.820;6.494;2023-05-07T08:14:38;17.70;84.80
46309;DHT22;32037;50.820;6.494;2023-05-07T08:17:08;17.70;84.70
46309;DHT22;32037;50.820;6.494;2023-05-07T08:19:39;17.70;84.80
46309;DHT22;32037;50.820;6.494;2023-05-07T08:22:10;17.70;84.70
46309;DHT22;32037;50.820;6.494;2023-05-07T08:24:39;17.70;84.70
46309;DHT22;32037;50.820;6.494;2023-05-07T08:27:08;17.70;84.70
46309;DHT22;32037;50.820;6.494;2023-05-07T08:29:39;17.70;84.60
46309;DHT22;32037;50.820;6.494;2023-05-07T08:32:08;17.80;84.70
46309;DHT22;32037;50.820;6.494;2023-05-07T08:34:36;17.80;84.70
46309;DHT22;32037;50.820;6.494;2023-05-07T08:37:07;17.70;84.60
46309;DHT22;32037;50.820;6.494;2023-05-07T08:39:36;17.80;84.70
46309;DHT22;32037;50.820;6.494;2023-05-07T08:42:13;17.80;85.50
46309;DHT22;32037;50.820;6.494;2023-05-07T08:44:45;17.80;85.40
46309;DHT22;32037;50.820;6.494;2023-05-07T08:47:17;17.80;85.10
46309;DHT22;32037;50.820;6.494;2023-05-07T08:49:49;17.80;85.10
46309;DHT22;32037;50.820;6.494;2023-05-07T08:52:21;17.80;85.10
46309;DHT22;32037;50.820;6.494;2023-05-07T08:54:51;17.80;85.20
46309;DHT22;32037;50.820;6.494;2023-05-07T08:57:19;17.80;85.20
46309;DHT22;32037;50.820;6.494;2023-05-07T08:59:49;17.80;85.20
46309;DHT22;32037;50.820;6.494;2023-05-07T09:02:18;17.80;85.20
46309;DHT22;32037;50.820;6.494;2023-05-07T09:04:47;17.90;85.40
46309;DHT22;32037;50.820;6.494;2023-05-07T09:07:16;18.00;85.20
46309;DHT22;32037;50.820;6.494;2023-05-07T09:09:46;18.10;85.60
46309;DHT22;32037;50.820;6.494;2023-05-07T09:12:15;18.50;90.60
46309;DHT22;32037;50.820;6.494;2023-05-07T09:14:45;18.70;90.20
46309;DHT22;32037;50.820;6.494;2023-05-07T09:17:15;18.70;88.80
46309;DHT22;32037;50.820;6.494;2023-05-07T09:19:44;18.60;88.10
46309;DHT22;32037;50.820;6.494;2023-05-07T09:22:14;18.40;87.30
46309;DHT22;32037;50.820;6.494;2023-05-07T09:24:54;18.30;88.40
46309;DHT22;32037;50.820;6.494;2023-05-07T09:27:26;18.20;89.00
46309;DHT22;32037;50.820;6.494;2023-05-07T09:29:56;18.20;89.20
46309;DHT22;32037;50.820;6.494;2023-05-07T09:32:25;18.10;89.10
46309;DHT22;32037;50.820;6.494;2023-05-07T09:34:54;18.10;89.20
46309;DHT22;32037;50.820;6.494;2023-05-07T09:37:26;18.10;89.20
46309;DHT22;32037;50.820;6.494;2023-05-07T09:39:56;18.00;88.90
46309;DHT22;32037;50.820;6.494;2023-05-07T09:42:26;18.00;88.90
46309;DHT22;32037;50.820;6.494;2023-05-07T09:44:59;18.00;88.80
46309;DHT22;32037;50.820;6.494;2023-05-07T09:47:37;17.90;88.50
46309;DHT22;32037;50.820;6.494;2023-05-07T09:50:08;17.90;88.40
46309;DHT22;32037;50.820;6.494;2023-05-07T09:52:40;18.00;88.50
46309;DHT22;32037;50.820;6.494;2023-05-07T09:55:12;17.90;88.40
46309;DHT22;32037;50.820;6.494;2023-05-07T09:57:43;17.90;88.30
46309;DHT22;32037;50.820;6.494;2023-05-07T10:00:13;17.90;88.20
46309;DHT22;32037;50.820;6.494;2023-05-07T10:02:49;17.90;88.20
46309;DHT22;32037;50.820;6.494;2023-05-07T10:05:26;17.90;88.00
46309;DHT22;32037;50.820;6.494;2023-05-07T10:07:58;17.90;87.90
46309;DHT22;32037;50.820;6.494;2023-05-07T10:10:33;17.90;87.90
46309;DHT22;32037;50.820;6.494;2023-05-07T10:13:04;17.90;87.80
46309;DHT22;32037;50.820;6.494;2023-05-07T10:15:41;17.90;87.70
46309;DHT22;32037;50.820;6.494;2023-05-07T10:18:12;17.90;87.80
46309;DHT22;32037;50.820;6.494;2023-05-07T10:20:43;18.10;90.10
46309;DHT22;32037;50.820;6.494;2023-05-07T10:23:15;18.20;89.40
46309;DHT22;32037;50.820;6.494;2023-05-07T10:25:49;18.30;88.90
46309;DHT22;32037;50.820;6.494;2023-05-07T10:28:26;18.30;88.20
46309;DHT22;32037;50.820;6.494;2023-05-07T10:31:03;18.40;87.80
46309;DHT22;32037;50.820;6.494;2023-05-07T10:33:40;18.40;87.40
46309;DHT22;32037;50.820;6.494;2023-05-07T10:36:10;18.40;86.80
46309;DHT22;32037;50.820;6.494;2023-05-07T10:38:39;18.40;86.70
46309;DHT22;32037;50.820;6.494;2023-05-07T10:41:11;18.40;86.60
46309;DHT22;32037;50.820;6.494;2023-05-07T10:43:43;18.50;86.60
46309;DHT22;32037;50.820;6.494;2023-05-07T10:46:23;18.50;86.20
46309;DHT22;32037;50.820;6.494;2023-05-07T10:49:10;18.50;86.20
46309;DHT22;32037;50.820;6.494;2023-05-07T10:52:16;18.50;85.90
46309;DHT22;32037;50.820;6.494;2023-05-07T10:55:20;18.50;85.80
46309;DHT22;32037;50.820;6.494;2023-05-07T10:58:26;18.50;85.70
46309;DHT22;32037;50.820;6.494;2023-05-07T11:01:53;18.50;85.70
46309;DHT22;32037;50.820;6.494;2023-05-07T11:04:35;18.50;86.20
46309;DHT22;32037;50.820;6.494;2023-05-07T11:07:25;18.50;86.30
46309;DHT22;32037;50.820;6.494;2023-05-07T11:10:13;18.60;87.70
46309;DHT22;32037;50.820;6.494;2023-05-07T11:12:58;18.70;87.30
46309;DHT22;32037;50.820;6.494;2023-05-07T11:15:47;18.60;87.30
46309;DHT22;32037;50.820;6.494;2023-05-07T11:18:46;18.60;88.40
46309;DHT22;32037;50.820;6.494;2023-05-07T11:21:34;18.50;86.90
46309;DHT22;32037;50.820;6.494;2023-05-07T11:24:19;18.60;86.90
46309;DHT22;32037;50.820;6.494;2023-05-07T11:26:54;18.50;86.80
46309;DHT22;32037;50.820;6.494;2023-05-07T11:29:25;18.60;86.70
46309;DHT22;32037;50.820;6.494;2023-05-07T11:32:00;18.50;87.00
46309;DHT22;32037;50.820;6.494;2023-05-07T11:34:36;18.50;86.60
46309;DHT22;32037;50.820;6.494;2023-05-07T11:37:05;18.50;86.50
46309;DHT22;32037;50.820;6.494;2023-05-07T11:39:50;18.50;86.40
46309;DHT22;32037;50.820;6.494;2023-05-07T11:42:32;18.50;86.30
46309;DHT22;32037;50.820;6.494;2023-05-07T11:45:01;18.50;86.30
46309;DHT22;32037;50.820;6.494;2023-05-07T11:47:31;18.50;86.30
46309;DHT22;32037;50.820;6.494;2023-05-07T11:50:03;18.50;86.30
46309;DHT22;32037;50.820;6.494;2023-05-07T11:52:35;18.50;86.30
46309;DHT22;32037;50.820;6.494;2023-05-07T11:55:07;18.50;86.20
46309;DHT22;32037;50.820;6.494;2023-05-07T11:57:36;18.50;86.20
46309;DHT22;32037;50.820;6.494;2023-05-07T12:00:06;18.50;86.20
46309;DHT22;32037;50.820;6.494;2023-05-07T12:02:45;18.50;86.30
46309;DHT22;32037;50.820;6.494;2023-05-07T12:05:16;18.40;86.30
46309;DHT22;32037;50.820;6.494;2023-05-07T12:07:45;18.40;86.30
46309;DHT22;32037;50.820;6.494;2023-05-07T12:10:14;18.50;87.30
46309;DHT22;32037;50.820;6.494;2023-05-07T12:12:46;18.40;88.10
46309;DHT22;32037;50.820;6.494;2023-05-07T12:15:16;18.50;89.20
46309;DHT22;32037;50.820;6.494;2023-05-07T12:17:46;18.50;89.20
46309;DHT22;32037;50.820;6.494;2023-05-07T12:20:17;18.50;90.20
46309;DHT22;32037;50.820;6.494;2023-05-07T12:22:47;18.40;89.70
46309;DHT22;32037;50.820;6.494;2023-05-07T12:25:19;18.40;89.70
46309;DHT22;32037;50.820;6.494;2023-05-07T12:27:51;18.40;90.00
46309;DHT22;32037;50.820;6.494;2023-05-07T12:30:20;18.40;89.50
46309;DHT22;32037;50.820;6.494;2023-05-07T12:32:52;18.40;89.00
46309;DHT22;32037;50.820;6.494;2023-05-07T12:35:27;18.40;88.30
46309;DHT22;32037;50.820;6.494;2023-05-07T12:37:55;18.40;87.70
46309;DHT22;32037;50.820;6.494;2023-05-07T12:40:35;18.40;88.70
46309;DHT22;32037;50.820;6.494;2023-05-07T12:43:04;18.40;88.40
46309;DHT22;32037;50.820;6.494;2023-05-07T12:45:37;18.40;88.00
46309;DHT22;32037;50.820;6.494;2023-05-07T12:48:10;18.40;87.40
46309;DHT22;32037;50.820;6.494;2023-05-07T12:50:38;18.40;87.30
46309;DHT22;32037;50.820;6.494;2023-05-07T12:53:07;18.40;87.10
46309;DHT22;32037;50.820;6.494;2023-05-07T12:55:42;18.40;87.30
46309;DHT22;32037;50.820;6.494;2023-05-07T12:58:17;18.40;87.20
46309;DHT22;32037;50.820;6.494;2023-05-07T13:00:48;18.40;87.40
46309;DHT22;32037;50.820;6.494;2023-05-07T13:03:26;18.40;87.50
46309;DHT22;32037;50.820;6.494;2023-05-07T13:05:57;18.40;87.20
46309;DHT22;32037;50.820;6.494;2023-05-07T13:08:27;18.40;89.30
46309;DHT22;32037;50.820;6.494;2023-05-07T13:10:57;18.40;88.80
46309;DHT22;32037;50.820;6.494;2023-05-07T13:13:26;18.40;87.80
46309;DHT22;32037;50.820;6.494;2023-05-07T13:15:58;18.40;87.30
46309;DHT22;32037;50.820;6.494;2023-05-07T13:18:30;18.40;87.20
46309;DHT22;32037;50.820;6.494;2023-05-07T13:21:00;18.40;87.20
46309;DHT22;32037;50.820;6.494;2023-05-07T13:23:28;18.40;87.70
46309;DHT22;32037;50.820;6.494;2023-05-07T13:25:57;18.40;87.50
46309;DHT22;32037;50.820;6.494;2023-05-07T13:28:30;18.40;87.10
46309;DHT22;32037;50.820;6.494;2023-05-07T13:30:58;18.40;87.20
46309;DHT22;32037;50.820;6.494;2023-05-07T13:33:28;18.40;87.30
46309;DHT22;32037;50.820;6.494;2023-05-07T13:35:56;18.40;87.30
46309;DHT22;32037;50.820;6.494;2023-05-07T13:38:25;18.40;87.60
46309;DHT22;32037;50.820;6.494;2023-05-07T13:40:53;18.40;87.80
46309;DHT22;32037;50.820;6.494;2023-05-07T13:43:21;18.40;87.80
46309;DHT22;32037;50.820;6.494;2023-05-07T13:45:50;18.40;87.50
46309;DHT22;32037;50.820;6.494;2023-05-07T13:48:18;18.40;87.80
46309;DHT22;32037;50.820;6.494;2023-05-07T13:50:48;18.40;87.60
46309;DHT22;32037;50.820;6.494;2023-05-07T13:53:17;18.40;88.30
46309;DHT22;32037;50.820;6.494;2023-05-07T13:55:45;18.40;88.30
46309;DHT22;32037;50.820;6.494;2023-05-07T13:58:14;18.40;88.00
46309;DHT22;32037;50.820;6.494;2023-05-07T14:00:42;18.40;88.60
46309;DHT22;32037;50.820;6.494;2023-05-07T14:03:10;18.40;87.90
46309;DHT22;32037;50.820;6.494;2023-05-07T14:05:39;18.40;87.80
46309;DHT22;32037;50.820;6.494;2023-05-07T14:08:08;18.40;87.50
46309;DHT22;32037;50.820;6.494;2023-05-07T14:10:37;18.40;87.50
46309;DHT22;32037;50.820;6.494;2023-05-07T14:13:06;18.40;87.60
46309;DHT22;32037;50.820;6.494;2023-05-07T14:15:34;18.40;87.50
46309;DHT22;32037;50.820;6.494;2023-05-07T14:18:03;18.40;87.90
46309;DHT22;32037;50.820;6.494;2023-05-07T14:20:32;18.50;88.20
46309;DHT22;32037;50.820;6.494;2023-05-07T14:23:04;18.50;88.30
46309;DHT22;32037;50.820;6.494;2023-05-07T14:25:34;18.50;88.00
46309;DHT22;32037;50.820;6.494;2023-05-07T14:28:03;18.50;88.30
46309;DHT22;32037;50.820;6.494;2023-05-07T14:30:34;18.50;88.00
46309;DHT22;32037;50.820;6.494;2023-05-07T14:33:02;18.50;88.20
46309;DHT22;32037;50.820;6.494;2023-05-07T14:35:31;18.50;88.10
46309;DHT22;32037;50.820;6.494;2023-05-07T14:37:59;18.50;88.10
46309;DHT22;32037;50.820;6.494;2023-05-07T14:40:27;18.50;88.00
46309;DHT22;32037;50.820;6.494;2023-05-07T14:42:57;18.50;87.70
46309;DHT22;32037;50.820;6.494;2023-05-07T14:45:25;18.50;87.60
46309;DHT22;32037;50.820;6.494;2023-05-07T14:47:54;18.50;87.80
46309;DHT22;32037;50.820;6.494;2023-05-07T14:50:22;18.50;87.50
46309;DHT22;32037;50.820;6.494;2023-05-07T14:52:50;18.50;87.50
46309;DHT22;32037;50.820;6.494;2023-05-07T14:55:19;18.50;87.40
46309;DHT22;32037;50.820;6.494;2023-05-07T14:57:47;18.50;87.60
46309;DHT22;32037;50.820;6.494;2023-05-07T15:00:17;18.50;87.50
46309;DHT22;32037;50.820;6.494;2023-05-07T15:02:46;18.50;87.50
46309;DHT22;32037;50.820;6.494;2023-05-07T15:05:14;18.50;88.80
46309;DHT22;32037;50.820;6.494;2023-05-07T15:07:42;18.50;87.50
46309;DHT22;32037;50.820;6.494;2023-05-07T15:10:12;18.50;87.50
46309;DHT22;32037;50.820;6.494;2023-05-07T15:12:40;18.50;87.50
46309;DHT22;32037;50.820;6.494;2023-05-07T15:15:10;18.50;87.40
46309;DHT22;32037;50.820;6.494;2023-05-07T15:17:40;18.60;87.40
46309;DHT22;32037;50.820;6.494;2023-05-07T15:20:08;18.50;87.30
46309;DHT22;32037;50.820;6.494;2023-05-07T15:22:37;18.50;87.30
46309;DHT22;32037;50.820;6.494;2023-05-07T15:25:05;18.50;88.60
46309;DHT22;32037;50.820;6.494;2023-05-07T15:27:36;18.60;87.30
46309;DHT22;32037;50.820;6.494;2023-05-07T15:30:06;18.50;87.20
46309;DHT22;32037;50.820;6.494;2023-05-07T15:32:37;18.50;87.20
46309;DHT22;32037;50.820;6.494;2023-05-07T15:35:09;18.50;87.10
46309;DHT22;32037;50.820;6.494;2023-05-07T15:37:38;18.50;87.00
46309;DHT22;32037;50.820;6.494;2023-05-07T15:40:07;18.50;87.00
46309;DHT22;32037;50.820;6.494;2023-05-07T15:42:35;18.60;87.10
46309;DHT22;32037;50.820;6.494;2023-05-07T15:45:05;18.50;86.90
46309;DHT22;32037;50.820;6.494;2023-05-07T15:47:34;18.60;87.30
46309;DHT22;32037;50.820;6.494;2023-05-07T15:50:03;18.60;87.30
46309;DHT22;32037;50.820;6.494;2023-05-07T15:52:33;18.50;86.90
46309;DHT22;32037;50.820;6.494;2023-05-07T15:55:01;18.50;86.80